createdAt,value
2023-09-07T00:00:19.252Z,102315.91
2023-09-07T00:02:47.509Z,102308.69
2023-09-07T00:05:15.605Z,102314.78
2023-09-07T00:07:43.059Z,102315.22
2023-09-07T00:10:10.775Z,102313.63
2023-09-07T00:12:40.618Z,102320.44
2023-09-07T00:15:08.816Z,102320.53
2023-09-07T00:17:36.278Z,102323.38
2023-09-07T00:20:12.025Z,102318.13
2023-09-07T00:22:39.511Z,102321.13
2023-09-07T00:25:08.131Z,102323.91
2023-09-07T00:27:35.725Z,102312.00
2023-09-07T00:30:06.101Z,102315.84
2023-09-07T00:32:34.855Z,102322.19
2023-09-07T00:35:02.382Z,102318.63
2023-09-07T00:37:29.958Z,102307.25
2023-09-07T00:39:57.549Z,102322.09
2023-09-07T00:42:25.022Z,102305.16
2023-09-07T00:44:52.541Z,102305.00
2023-09-07T00:47:20.146Z,102306.06
2023-09-07T00:49:47.858Z,102301.75
2023-09-07T00:52:15.332Z,102303.88
2023-09-07T00:54:43.777Z,102302.59
2023-09-07T00:57:11.569Z,102306.81
2023-09-07T00:59:39.058Z,102303.97
2023-09-07T01:02:09.241Z,102298.59
2023-09-07T01:04:36.998Z,102309.75
2023-09-07T01:07:15.110Z,102304.38
2023-09-07T01:09:44.735Z,102300.63
2023-09-07T01:12:16.348Z,102297.94
2023-09-07T01:14:44.240Z,102301.41
2023-09-07T01:17:13.238Z,102307.53
2023-09-07T01:19:41.443Z,102308.19
2023-09-07T01:22:10.627Z,102305.06
2023-09-07T01:24:40.110Z,102310.78
2023-09-07T01:27:07.932Z,102316.56
2023-09-07T01:29:35.491Z,102307.44
2023-09-07T01:32:03.352Z,102313.63
2023-09-07T01:34:30.871Z,102312.84
2023-09-07T01:36:58.278Z,102307.41
2023-09-07T01:39:25.710Z,102312.25
2023-09-07T01:41:53.238Z,102312.19
2023-09-07T01:44:21.046Z,102308.06
2023-09-07T01:46:48.536Z,102314.22
2023-09-07T01:49:15.943Z,102308.13
2023-09-07T01:51:43.490Z,102306.81
2023-09-07T01:54:11.781Z,102317.25
2023-09-07T01:56:42.764Z,102311.38
2023-09-07T01:59:10.363Z,102315.97
2023-09-07T02:01:38.953Z,102316.75
2023-09-07T02:04:06.463Z,102311.00
2023-09-07T02:06:33.956Z,102314.34
2023-09-07T02:09:01.563Z,102315.00
2023-09-07T02:11:29.112Z,102315.66
2023-09-07T02:13:56.520Z,102312.91
2023-09-07T02:16:24.092Z,102313.06
2023-09-07T02:18:52.050Z,102311.47
2023-09-07T02:21:19.529Z,102316.00
2023-09-07T02:23:46.982Z,102309.38
2023-09-07T02:26:14.502Z,102312.31
2023-09-07T02:28:42.282Z,102310.03
2023-09-07T02:31:09.897Z,102308.09
2023-09-07T02:33:37.436Z,102316.56
2023-09-07T02:36:05.507Z,102308.50
2023-09-07T02:38:33.177Z,102307.19
2023-09-07T02:41:00.896Z,102316.09
2023-09-07T02:43:28.606Z,102315.34
2023-09-07T02:45:55.990Z,102305.38
2023-09-07T02:48:23.387Z,102309.16
2023-09-07T02:50:52.069Z,102312.81
2023-09-07T02:53:19.774Z,102318.03
2023-09-07T02:55:47.270Z,102314.41
2023-09-07T02:58:14.992Z,102314.13
2023-09-07T03:00:46.337Z,102315.03
2023-09-07T03:03:16.286Z,102316.88
2023-09-07T03:05:44.774Z,102314.31
2023-09-07T03:08:12.357Z,102313.22
2023-09-07T03:10:41.328Z,102312.59
2023-09-07T03:13:09.042Z,102310.16
2023-09-07T03:15:37.048Z,102324.06
2023-09-07T03:18:04.841Z,102314.69
2023-09-07T03:20:35.620Z,102322.16
2023-09-07T03:23:03.823Z,102317.78
2023-09-07T03:25:31.475Z,102318.63
2023-09-07T03:27:59.008Z,102323.75
2023-09-07T03:30:26.539Z,102323.00
2023-09-07T03:32:54.064Z,102322.16
2023-09-07T03:35:21.674Z,102319.47
2023-09-07T03:37:49.072Z,102319.72
2023-09-07T03:40:16.581Z,102323.38
2023-09-07T03:42:44.859Z,102321.78
2023-09-07T03:45:12.457Z,102325.94
2023-09-07T03:47:40.314Z,102325.94
2023-09-07T03:50:08.124Z,102326.84
2023-09-07T03:52:35.631Z,102325.00
2023-09-07T03:55:03.424Z,102329.50
2023-09-07T03:57:33.749Z,102339.38
2023-09-07T04:00:01.667Z,102333.69
2023-09-07T04:02:29.570Z,102336.97
2023-09-07T04:04:57.205Z,102329.91
2023-09-07T04:07:24.688Z,102330.03
2023-09-07T04:09:52.183Z,102342.34
2023-09-07T04:12:19.644Z,102337.09
2023-09-07T04:14:47.138Z,102332.34
2023-09-07T04:17:14.612Z,102339.44
2023-09-07T04:19:42.017Z,102336.00
2023-09-07T04:22:09.400Z,102339.66
2023-09-07T04:24:36.849Z,102341.97
2023-09-07T04:27:05.188Z,102335.78
2023-09-07T04:29:32.630Z,102335.78
2023-09-07T04:32:00.035Z,102340.28
2023-09-07T04:34:27.480Z,102334.19
2023-09-07T04:36:54.898Z,102342.22
2023-09-07T04:39:22.300Z,102344.91
2023-09-07T04:41:49.783Z,102339.53
2023-09-07T04:44:17.198Z,102339.53
2023-09-07T04:46:44.648Z,102346.13
2023-09-07T04:49:12.060Z,102346.72
2023-09-07T04:51:39.518Z,102344.53
2023-09-07T04:54:07.012Z,102346.50
2023-09-07T04:56:34.411Z,102337.00
2023-09-07T04:59:01.812Z,102340.38
2023-09-07T05:01:29.719Z,102341.13
2023-09-07T05:03:57.524Z,102344.19
2023-09-07T05:06:24.933Z,102343.94
2023-09-07T05:08:52.303Z,102337.38
2023-09-07T05:11:19.681Z,102345.41
2023-09-07T05:13:47.150Z,102341.00
2023-09-07T05:16:14.653Z,102344.19
2023-09-07T05:18:44.287Z,102352.69
2023-09-07T05:21:15.917Z,102359.91
2023-09-07T05:23:43.973Z,102356.59
2023-09-07T05:26:11.793Z,102364.88
2023-09-07T05:28:41.908Z,102354.31
2023-09-07T05:31:09.562Z,102367.31
2023-09-07T05:33:37.196Z,102361.47
2023-09-07T05:36:04.841Z,102360.38
2023-09-07T05:38:34.047Z,102355.13
2023-09-07T05:41:02.064Z,102353.66
2023-09-07T05:43:29.725Z,102356.47
2023-09-07T05:45:57.218Z,102358.75
2023-09-07T05:48:24.685Z,102365.47
2023-09-07T05:50:52.181Z,102365.34
2023-09-07T05:53:22.815Z,102350.97
2023-09-07T05:55:50.271Z,102359.50
2023-09-07T05:58:17.754Z,102357.28
2023-09-07T06:00:45.309Z,102365.94
2023-09-07T06:03:13.065Z,102362.84
2023-09-07T06:05:40.891Z,102367.13
2023-09-07T06:08:08.910Z,102372.84
2023-09-07T06:10:36.546Z,102369.94
2023-09-07T06:13:04.746Z,102372.59
2023-09-07T06:15:32.588Z,102369.94
2023-09-07T06:18:00.297Z,102371.41
2023-09-07T06:20:27.833Z,102372.25
2023-09-07T06:22:55.312Z,102364.06
2023-09-07T06:25:23.579Z,102371.72
2023-09-07T06:27:51.045Z,102368.41
2023-09-07T06:30:19.739Z,102365.72
2023-09-07T06:32:47.184Z,102364.50
2023-09-07T06:35:14.841Z,102374.28
2023-09-07T06:37:44.558Z,102373.28
2023-09-07T06:40:12.541Z,102373.41
2023-09-07T06:42:39.968Z,102381.69
2023-09-07T06:45:08.496Z,102381.16
2023-09-07T06:47:35.913Z,102384.19
2023-09-07T06:50:03.658Z,102377.56
2023-09-07T06:52:31.197Z,102377.19
2023-09-07T06:54:58.687Z,102379.75
2023-09-07T06:57:26.186Z,102375.56
2023-09-07T06:59:53.706Z,102380.41
2023-09-07T07:02:21.108Z,102384.41
2023-09-07T07:04:48.567Z,102385.84
2023-09-07T07:07:15.998Z,102391.69
2023-09-07T07:09:43.499Z,102392.84
2023-09-07T07:12:11.049Z,102395.06
2023-09-07T07:14:38.508Z,102401.72
2023-09-07T07:17:06.472Z,102394.84
2023-09-07T07:19:34.324Z,102397.13
2023-09-07T07:22:01.885Z,102394.88
2023-09-07T07:24:29.439Z,102399.59
2023-09-07T07:26:56.790Z,102401.75
2023-09-07T07:29:24.299Z,102395.97
2023-09-07T07:31:51.717Z,102401.94
2023-09-07T07:34:19.172Z,102396.88
2023-09-07T07:36:46.633Z,102396.34
2023-09-07T07:39:14.203Z,102399.47
2023-09-07T07:41:43.904Z,102401.63
2023-09-07T07:44:11.495Z,102403.63
2023-09-07T07:46:39.047Z,102411.28
2023-09-07T07:49:06.550Z,102403.66
2023-09-07T07:51:33.991Z,102405.09
2023-09-07T07:54:01.542Z,102392.94
2023-09-07T07:56:30.749Z,102403.97
2023-09-07T07:59:00.016Z,102399.75
2023-09-07T08:01:27.657Z,102403.75
2023-09-07T08:03:55.410Z,102403.16
2023-09-07T08:06:23.019Z,102403.47
2023-09-07T08:08:50.410Z,102408.31
2023-09-07T08:11:18.193Z,102408.72
2023-09-07T08:13:47.833Z,102406.03
2023-09-07T08:16:15.459Z,102411.97
2023-09-07T08:18:43.076Z,102411.41
2023-09-07T08:21:10.654Z,102415.53
2023-09-07T08:23:38.088Z,102401.25
2023-09-07T08:26:06.617Z,102398.53
2023-09-07T08:28:34.361Z,102408.28
2023-09-07T08:31:02.434Z,102405.72
2023-09-07T08:33:30.723Z,102401.91
2023-09-07T08:35:58.990Z,102406.72
2023-09-07T08:38:29.664Z,102402.59
2023-09-07T08:41:02.679Z,102386.50
2023-09-07T08:43:30.631Z,102401.00
2023-09-07T08:46:16.062Z,102390.63
2023-09-07T08:48:44.930Z,102397.72
2023-09-07T08:51:14.286Z,102397.69
2023-09-07T08:53:42.464Z,102393.41
2023-09-07T08:56:11.431Z,102389.97
2023-09-07T08:58:39.159Z,102387.94
2023-09-07T09:01:08.170Z,102387.94
2023-09-07T09:03:38.674Z,102392.59
2023-09-07T09:06:06.834Z,102385.06
2023-09-07T09:08:50.307Z,102380.47
2023-09-07T09:11:18.640Z,102381.13
2023-09-07T09:13:46.925Z,102374.56
2023-09-07T09:16:15.487Z,102376.47
2023-09-07T09:18:56.632Z,102374.56
2023-09-07T09:21:26.498Z,102370.84
2023-09-07T09:23:56.246Z,102378.66
2023-09-07T09:26:26.383Z,102365.91
2023-09-07T09:28:57.146Z,102374.50
2023-09-07T09:31:26.138Z,102377.22
2023-09-07T09:33:54.380Z,102372.44
2023-09-07T09:36:23.316Z,102367.59
2023-09-07T09:38:54.300Z,102366.75
2023-09-07T09:41:24.874Z,102373.22
2023-09-07T09:43:54.095Z,102370.72
2023-09-07T09:46:23.405Z,102359.06
2023-09-07T09:48:51.164Z,102366.56
2023-09-07T09:51:19.673Z,102358.16
2023-09-07T09:53:48.157Z,102356.66
2023-09-07T09:56:15.648Z,102352.31
2023-09-07T09:58:43.078Z,102355.25
2023-09-07T10:01:12.222Z,102354.81
2023-09-07T10:03:51.769Z,102346.75
2023-09-07T10:06:22.294Z,102338.97
2023-09-07T10:09:08.096Z,102351.31
2023-09-07T10:11:40.775Z,102345.06
2023-09-07T10:14:09.152Z,102342.25
2023-09-07T10:16:45.292Z,102347.94
2023-09-07T10:19:23.460Z,102339.16
2023-09-07T10:21:54.272Z,102339.81
2023-09-07T10:24:29.835Z,102334.44
2023-09-07T10:27:08.239Z,102336.72
2023-09-07T10:29:56.401Z,102335.88
2023-09-07T10:32:24.832Z,102330.59
2023-09-07T10:34:52.470Z,102323.81
2023-09-07T10:37:20.964Z,102327.41
2023-09-07T10:39:48.408Z,102324.38
2023-09-07T10:42:26.204Z,102332.00
2023-09-07T10:44:54.370Z,102320.31
2023-09-07T10:47:22.253Z,102325.94
2023-09-07T10:49:49.954Z,102319.50
2023-09-07T10:52:17.945Z,102327.28
2023-09-07T10:54:45.485Z,102322.75
2023-09-07T10:57:19.221Z,102315.13
2023-09-07T10:59:47.772Z,102311.13
2023-09-07T11:02:17.417Z,102310.91
2023-09-07T11:04:45.205Z,102310.06
2023-09-07T11:07:13.487Z,102307.38
2023-09-07T11:09:44.973Z,102304.31
2023-09-07T11:12:17.418Z,102308.06
2023-09-07T11:14:44.977Z,102304.88
2023-09-07T11:17:12.453Z,102306.22
2023-09-07T11:19:39.876Z,102303.38
2023-09-07T11:22:10.391Z,102296.28
2023-09-07T11:24:38.195Z,102307.44
2023-09-07T11:27:05.949Z,102307.28
2023-09-07T11:29:34.282Z,102301.88
2023-09-07T11:32:08.963Z,102298.47
2023-09-07T11:34:36.789Z,102296.97
2023-09-07T11:37:04.728Z,102300.00
2023-09-07T11:39:32.171Z,102297.81
2023-09-07T11:41:59.562Z,102284.25
2023-09-07T11:44:26.932Z,102284.91
2023-09-07T11:46:54.394Z,102279.84
2023-09-07T11:49:22.840Z,102275.59
2023-09-07T11:51:50.621Z,102271.72
2023-09-07T11:54:18.636Z,102267.31
2023-09-07T11:56:46.894Z,102274.91
2023-09-07T11:59:14.289Z,102275.75
2023-09-07T12:01:41.879Z,102271.72
2023-09-07T12:04:09.897Z,102264.59
2023-09-07T12:06:37.724Z,102264.28
2023-09-07T12:09:18.375Z,102266.97
2023-09-07T12:11:45.780Z,102253.91
2023-09-07T12:14:14.456Z,102239.47
2023-09-07T12:16:42.060Z,102248.44
2023-09-07T12:19:10.257Z,102240.94
2023-09-07T12:21:37.716Z,102246.75
2023-09-07T12:24:05.403Z,102240.28
2023-09-07T12:26:32.961Z,102240.44
2023-09-07T12:29:00.534Z,102233.50
2023-09-07T12:31:28.093Z,102238.06
2023-09-07T12:33:55.581Z,102231.63
2023-09-07T12:36:23.248Z,102229.75
2023-09-07T12:38:51.199Z,102229.72
2023-09-07T12:41:19.020Z,102221.94
2023-09-07T12:43:46.807Z,102223.94
2023-09-07T12:46:14.906Z,102224.94
2023-09-07T12:48:42.401Z,102217.00
2023-09-07T12:51:09.780Z,102218.00
2023-09-07T12:53:37.165Z,102214.97
2023-09-07T12:56:05.067Z,102207.66
2023-09-07T12:58:32.581Z,102217.97
2023-09-07T13:01:00.015Z,102213.03
2023-09-07T13:03:27.552Z,102217.47
2023-09-07T13:05:55.157Z,102210.50
2023-09-07T13:08:22.616Z,102210.97
2023-09-07T13:10:50.030Z,102214.03
2023-09-07T13:13:18.465Z,102212.19
2023-09-07T13:15:46.031Z,102211.16
2023-09-07T13:18:13.741Z,102204.91
2023-09-07T13:20:41.156Z,102199.63
2023-09-07T13:23:08.560Z,102189.25
2023-09-07T13:25:36.099Z,102194.88
2023-09-07T13:28:03.690Z,102191.81
2023-09-07T13:30:31.098Z,102193.53
2023-09-07T13:32:58.560Z,102179.28
2023-09-07T13:35:25.972Z,102190.41
2023-09-07T13:37:54.029Z,102186.09
2023-09-07T13:40:25.256Z,102177.81
2023-09-07T13:42:52.717Z,102187.34
2023-09-07T13:45:20.154Z,102184.97
2023-09-07T13:47:47.780Z,102183.44
2023-09-07T13:50:15.423Z,102178.38
2023-09-07T13:52:42.837Z,102181.38
2023-09-07T13:55:10.334Z,102179.34
2023-09-07T13:57:37.818Z,102180.88
2023-09-07T14:00:07.167Z,102177.97
2023-09-07T14:02:34.793Z,102168.78
2023-09-07T14:05:02.329Z,102168.31
2023-09-07T14:07:29.912Z,102167.47
2023-09-07T14:09:57.661Z,102167.66
2023-09-07T14:12:25.110Z,102163.59
2023-09-07T14:14:52.576Z,102168.19
2023-09-07T14:17:20.052Z,102158.41
2023-09-07T14:19:47.520Z,102157.00
2023-09-07T14:22:14.967Z,102162.09
2023-09-07T14:24:42.390Z,102155.34
2023-09-07T14:27:10.270Z,102150.53
2023-09-07T14:29:37.754Z,102155.41
2023-09-07T14:32:05.833Z,102149.78
2023-09-07T14:34:33.299Z,102150.09
2023-09-07T14:37:01.006Z,102153.94
2023-09-07T14:39:28.749Z,102152.84
2023-09-07T14:41:56.244Z,102152.53
2023-09-07T14:44:23.883Z,102148.91
2023-09-07T14:46:51.849Z,102143.81
2023-09-07T14:49:19.513Z,102148.34
2023-09-07T14:51:47.205Z,102145.69
2023-09-07T14:54:14.760Z,102136.13
2023-09-07T14:56:42.198Z,102138.31
2023-09-07T14:59:09.805Z,102133.81
2023-09-07T15:01:37.281Z,102133.28
2023-09-07T15:04:04.930Z,102133.91
2023-09-07T15:06:34.607Z,102135.91
2023-09-07T15:09:02.177Z,102126.44
2023-09-07T15:11:29.822Z,102120.88
2023-09-07T15:13:57.335Z,102127.53
2023-09-07T15:16:25.985Z,102126.22
2023-09-07T15:18:53.626Z,102125.00
2023-09-07T15:21:22.001Z,102122.03
2023-09-07T15:23:49.891Z,102122.31
2023-09-07T15:26:17.463Z,102118.19
2023-09-07T15:28:44.912Z,102122.00
2023-09-07T15:31:12.386Z,102123.13
2023-09-07T15:33:39.812Z,102114.56
2023-09-07T15:36:07.389Z,102117.00
2023-09-07T15:38:35.179Z,102115.94
2023-09-07T15:41:05.997Z,102119.53
2023-09-07T15:43:33.841Z,102110.97
2023-09-07T15:46:01.331Z,102113.94
2023-09-07T15:48:29.044Z,102117.03
2023-09-07T15:50:57.237Z,102111.88
2023-09-07T15:53:24.691Z,102110.66
2023-09-07T15:55:52.503Z,102102.88
2023-09-07T15:58:20.101Z,102105.59
2023-09-07T16:00:47.532Z,102096.84
2023-09-07T16:03:15.976Z,102101.63
2023-09-07T16:05:43.519Z,102103.72
2023-09-07T16:08:11.132Z,102100.88
2023-09-07T16:10:39.622Z,102101.34
2023-09-07T16:13:07.361Z,102101.72
2023-09-07T16:15:34.773Z,102105.78
2023-09-07T16:18:02.289Z,102099.13
2023-09-07T16:20:29.901Z,102099.03
2023-09-07T16:22:57.362Z,102097.75
2023-09-07T16:25:24.788Z,102097.69
2023-09-07T16:27:53.299Z,102095.63
2023-09-07T16:30:20.914Z,102094.25
2023-09-07T16:32:48.417Z,102094.53
2023-09-07T16:35:15.955Z,102092.56
2023-09-07T16:37:43.404Z,102098.47
2023-09-07T16:40:12.426Z,102105.44
2023-09-07T16:42:39.840Z,102108.06
2023-09-07T16:45:08.303Z,102103.34
2023-09-07T16:47:35.851Z,102103.13
2023-09-07T16:50:03.410Z,102097.59
2023-09-07T16:52:32.982Z,102107.66
2023-09-07T16:55:00.509Z,102098.19
2023-09-07T16:57:29.362Z,102096.03
2023-09-07T16:59:57.822Z,102103.03
2023-09-07T17:02:26.142Z,102101.03
2023-09-07T17:04:53.746Z,102099.69
2023-09-07T17:07:21.658Z,102101.78
2023-09-07T17:09:49.146Z,102101.84
2023-09-07T17:12:17.533Z,102097.63
2023-09-07T17:14:47.732Z,102097.66
2023-09-07T17:17:16.334Z,102092.63
2023-09-07T17:19:43.994Z,102088.25
2023-09-07T17:22:12.912Z,102089.97
2023-09-07T17:24:40.472Z,102089.66
2023-09-07T17:27:07.870Z,102082.91
2023-09-07T17:29:35.441Z,102089.88
2023-09-07T17:32:02.975Z,102092.41
2023-09-07T17:34:34.382Z,102089.53
2023-09-07T17:37:01.941Z,102093.94
2023-09-07T17:39:29.623Z,102086.53
2023-09-07T17:41:57.114Z,102091.28
2023-09-07T17:44:24.599Z,102094.00
2023-09-07T17:46:52.163Z,102099.94
2023-09-07T17:49:19.664Z,102107.56
2023-09-07T17:51:47.201Z,102097.41
2023-09-07T17:54:15.023Z,102099.13
2023-09-07T17:56:42.779Z,102102.53
2023-09-07T17:59:10.540Z,102106.78
2023-09-07T18:01:38.197Z,102102.06
2023-09-07T18:04:05.981Z,102111.03
2023-09-07T18:06:34.913Z,102109.19
2023-09-07T18:09:02.503Z,102117.81
2023-09-07T18:11:30.148Z,102114.06
2023-09-07T18:14:11.579Z,102118.66
2023-09-07T18:16:42.487Z,102114.75
2023-09-07T18:19:10.689Z,102120.34
2023-09-07T18:21:39.248Z,102119.84
2023-09-07T18:24:07.122Z,102123.91
2023-09-07T18:26:34.631Z,102126.09
2023-09-07T18:29:02.215Z,102121.00
2023-09-07T18:31:29.740Z,102126.75
2023-09-07T18:33:57.361Z,102132.69
2023-09-07T18:36:24.894Z,102134.53
2023-09-07T18:38:52.377Z,102136.56
2023-09-07T18:41:19.816Z,102137.41
2023-09-07T18:43:47.272Z,102136.03
2023-09-07T18:46:14.827Z,102133.00
2023-09-07T18:48:42.328Z,102130.28
2023-09-07T18:51:10.092Z,102129.59
2023-09-07T18:53:37.823Z,102132.16
2023-09-07T18:56:07.213Z,102130.63
2023-09-07T18:58:35.758Z,102127.41
2023-09-07T19:01:29.849Z,102132.16
2023-09-07T19:04:12.517Z,102124.50
2023-09-07T19:06:40.551Z,102125.47
2023-09-07T19:09:09.351Z,102130.03
2023-09-07T19:11:37.328Z,102130.38
2023-09-07T19:14:05.483Z,102118.88
2023-09-07T19:16:33.033Z,102127.16
2023-09-07T19:19:00.672Z,102119.34
2023-09-07T19:21:32.106Z,102123.75
2023-09-07T19:24:01.020Z,102124.06
2023-09-07T19:26:33.115Z,102126.59
2023-09-07T19:29:02.452Z,102129.81
2023-09-07T19:31:30.069Z,102131.16
2023-09-07T19:33:58.667Z,102135.72
2023-09-07T19:36:27.717Z,102132.47
2023-09-07T19:38:58.746Z,102131.13
2023-09-07T19:41:35.631Z,102129.06
2023-09-07T19:44:04.018Z,102127.88
2023-09-07T19:49:05.115Z,102131.91
2023-09-07T19:51:33.924Z,102135.59
2023-09-07T19:54:01.581Z,102135.91
2023-09-07T19:56:29.490Z,102131.84
2023-09-07T19:58:57.150Z,102134.00
2023-09-07T20:01:25.084Z,102133.13
2023-09-07T20:03:55.172Z,102131.59
2023-09-07T20:06:25.725Z,102128.19
2023-09-07T20:08:53.537Z,102123.09
2023-09-07T20:11:21.058Z,102124.09
2023-09-07T20:13:48.736Z,102124.59
2023-09-07T20:16:17.358Z,102128.97
2023-09-07T20:18:47.505Z,102129.28
2023-09-07T20:21:15.109Z,102131.31
2023-09-07T20:23:43.069Z,102124.19
2023-09-07T20:26:10.652Z,102138.03
2023-09-07T20:28:38.526Z,102134.81
2023-09-07T20:31:07.234Z,102133.09
2023-09-07T20:33:34.862Z,102137.81
2023-09-07T20:36:03.063Z,102127.81
2023-09-07T20:38:31.658Z,102128.97
2023-09-07T20:41:00.704Z,102133.53
2023-09-07T20:43:28.799Z,102131.00
2023-09-07T20:45:56.571Z,102134.16
2023-09-07T20:48:24.561Z,102126.91
2023-09-07T20:50:52.284Z,102124.34
2023-09-07T20:53:21.543Z,102124.66
2023-09-07T20:55:49.380Z,102118.72
2023-09-07T20:58:17.014Z,102117.88
2023-09-07T21:00:44.569Z,102117.22
2023-09-07T21:03:12.278Z,102115.84
2023-09-07T21:05:40.163Z,102114.13
2023-09-07T21:08:07.686Z,102113.91
2023-09-07T21:10:35.415Z,102106.97
2023-09-07T21:13:03.011Z,102108.97
2023-09-07T21:15:30.512Z,102109.31
2023-09-07T21:17:59.252Z,102109.59
2023-09-07T21:20:27.148Z,102111.72
2023-09-07T21:22:54.488Z,102097.22
2023-09-07T21:25:22.028Z,102106.16
2023-09-07T21:27:49.555Z,102108.03
2023-09-07T21:30:17.111Z,102108.66
2023-09-07T21:32:44.564Z,102104.13
2023-09-07T21:35:12.171Z,102104.59
2023-09-07T21:37:39.684Z,102103.72
2023-09-07T21:40:07.815Z,102108.25
2023-09-07T21:42:35.268Z,102109.44
2023-09-07T21:45:02.767Z,102104.03
2023-09-07T21:47:31.787Z,102105.50
2023-09-07T21:50:03.959Z,102097.16
2023-09-07T21:52:31.579Z,102095.16
2023-09-07T21:54:59.015Z,102099.84
2023-09-07T21:57:26.571Z,102099.00
2023-09-07T21:59:54.547Z,102094.09
2023-09-07T22:02:23.786Z,102096.25
2023-09-07T22:04:52.635Z,102096.72
2023-09-07T22:07:20.534Z,102095.69
2023-09-07T22:09:49.430Z,102092.31
2023-09-07T22:12:17.059Z,102096.16
2023-09-07T22:14:45.043Z,102098.31
2023-09-07T22:17:15.595Z,102100.16
2023-09-07T22:19:43.119Z,102092.69
2023-09-07T22:22:12.700Z,102101.22
2023-09-07T22:24:40.199Z,102097.59
2023-09-07T22:27:07.824Z,102092.00
2023-09-07T22:29:36.287Z,102096.88
2023-09-07T22:32:04.142Z,102088.88
2023-09-07T22:34:32.730Z,102088.06
2023-09-07T22:37:03.415Z,102091.38
2023-09-07T22:39:30.898Z,102095.59
2023-09-07T22:41:58.549Z,102096.41
2023-09-07T22:44:26.160Z,102099.66
2023-09-07T22:46:55.020Z,102096.41
2023-09-07T22:49:22.618Z,102093.31
2023-09-07T22:51:50.108Z,102087.50
2023-09-07T22:54:18.026Z,102092.06
2023-09-07T22:56:45.534Z,102096.75
2023-09-07T22:59:13.235Z,102100.88
2023-09-07T23:01:40.736Z,102098.06
2023-09-07T23:04:08.869Z,102098.34
2023-09-07T23:06:36.506Z,102104.47
2023-09-07T23:09:08.012Z,102095.81
2023-09-07T23:11:35.678Z,102099.69
2023-09-07T23:14:03.330Z,102094.38
2023-09-07T23:16:30.929Z,102099.38
2023-09-07T23:18:58.617Z,102095.69
2023-09-07T23:21:26.413Z,102093.28
2023-09-07T23:23:53.961Z,102097.25
2023-09-07T23:26:22.448Z,102092.88
2023-09-07T23:28:49.959Z,102096.56
2023-09-07T23:31:19.053Z,102094.88
2023-09-07T23:33:46.690Z,102095.28
2023-09-07T23:36:14.202Z,102087.34
2023-09-07T23:38:42.773Z,102090.03
2023-09-07T23:41:10.825Z,102094.88
2023-09-07T23:43:38.337Z,102094.88
2023-09-07T23:46:05.869Z,102090.31
2023-09-07T23:48:33.610Z,102080.00
2023-09-07T23:51:01.363Z,102079.16
2023-09-07T23:53:28.990Z,102084.09
2023-09-07T23:55:56.741Z,102080.16
2023-09-07T23:58:24.282Z,102081.00
